sensor_id;sensor_type;location;lat;lon;timestamp;pressure;altitude;pressure_sealevel;temperature;humidity
40171;BME280;37650;52.790;18.268;2023-08-07T00:00:04;98839.01;;;13.04;100.00
40171;BME280;37650;52.790;18.268;2023-08-07T00:03:46;98845.40;;;13.01;100.00
40171;BME280;37650;52.790;18.268;2023-08-07T00:07:08;98850.44;;;12.99;100.00
40171;BME280;37650;52.790;18.268;2023-08-07T00:10:28;98851.05;;;12.96;100.00
40171;BME280;37650;52.790;18.268;2023-08-07T00:13:50;98855.94;;;12.94;100.00
40171;BME280;37650;52.790;18.268;2023-08-07T00:17:12;98853.48;;;12.94;100.00
40171;BME280;37650;52.790;18.268;2023-08-07T00:20:33;98859.42;;;12.94;100.00
40171;BME280;37650;52.790;18.268;2023-08-07T00:23:54;98861.63;;;12.93;100.00
40171;BME280;37650;52.790;18.268;2023-08-07T00:27:15;98858.80;;;12.91;100.00
40171;BME280;37650;52.790;18.268;2023-08-07T00:30:36;98856.68;;;12.91;100.00
40171;BME280;37650;52.790;18.268;2023-08-07T00:33:58;98852.98;;;12.93;100.00
40171;BME280;37650;52.790;18.268;2023-08-07T00:37:19;98851.73;;;12.93;100.00
40171;BME280;37650;52.790;18.268;2023-08-07T00:40:40;98844.06;;;12.95;100.00
40171;BME280;37650;52.790;18.268;2023-08-07T00:44:02;98846.00;;;12.95;100.00
40171;BME280;37650;52.790;18.268;2023-08-07T00:47:24;98846.81;;;12.96;100.00
40171;BME280;37650;52.790;18.268;2023-08-07T00:50:47;98843.36;;;12.98;100.00
40171;BME280;37650;52.790;18.268;2023-08-07T00:54:10;98842.14;;;12.98;100.00
40171;BME280;37650;52.790;18.268;2023-08-07T00:57:32;98845.80;;;12.98;100.00
40171;BME280;37650;52.790;18.268;2023-08-07T01:00:54;98844.54;;;12.98;100.00
40171;BME280;37650;52.790;18.268;2023-08-07T01:04:15;98836.98;;;12.96;100.00
40171;BME280;37650;52.790;18.268;2023-08-07T01:07:36;98836.11;;;12.93;100.00
40171;BME280;37650;52.790;18.268;2023-08-07T01:14:47;98832.64;;;12.90;100.00
40171;BME280;37650;52.790;18.268;2023-08-07T01:18:11;98831.76;;;12.87;100.00
40171;BME280;37650;52.790;18.268;2023-08-07T01:21:32;98833.61;;;12.87;100.00
40171;BME280;37650;52.790;18.268;2023-08-07T01:24:54;98841.44;;;12.85;100.00
40171;BME280;37650;52.790;18.268;2023-08-07T01:28:19;98838.36;;;12.84;100.00
40171;BME280;37650;52.790;18.268;2023-08-07T01:31:48;98837.21;;;12.80;100.00
40171;BME280;37650;52.790;18.268;2023-08-07T01:35:12;98829.79;;;12.78;100.00
40171;BME280;37650;52.790;18.268;2023-08-07T01:38:33;98823.30;;;12.73;100.00
40171;BME280;37650;52.790;18.268;2023-08-07T01:41:56;98823.66;;;12.70;100.00
40171;BME280;37650;52.790;18.268;2023-08-07T01:45:25;98820.70;;;12.70;100.00
40171;BME280;37650;52.790;18.268;2023-08-07T01:48:46;98821.54;;;12.68;100.00
40171;BME280;37650;52.790;18.268;2023-08-07T01:52:08;98816.71;;;12.66;100.00
40171;BME280;37650;52.790;18.268;2023-08-07T01:55:29;98813.00;;;12.64;100.00
40171;BME280;37650;52.790;18.268;2023-08-07T01:58:50;98812.29;;;12.64;100.00
40171;BME280;37650;52.790;18.268;2023-08-07T02:02:11;98809.46;;;12.67;100.00
40171;BME280;37650;52.790;18.268;2023-08-07T02:05:33;98810.86;;;12.67;100.00
40171;BME280;37650;52.790;18.268;2023-08-07T02:08:54;98811.23;;;12.64;100.00
40171;BME280;37650;52.790;18.268;2023-08-07T02:12:15;98804.77;;;12.64;100.00
40171;BME280;37650;52.790;18.268;2023-08-07T02:15:36;98805.42;;;12.64;100.00
40171;BME280;37650;52.790;18.268;2023-08-07T02:19:00;98806.69;;;12.64;100.00
40171;BME280;37650;52.790;18.268;2023-08-07T02:22:22;98805.38;;;12.65;100.00
40171;BME280;37650;52.790;18.268;2023-08-07T02:25:44;98800.06;;;12.65;100.00
40171;BME280;37650;52.790;18.268;2023-08-07T02:29:06;98796.20;;;12.66;100.00
40171;BME280;37650;52.790;18.268;2023-08-07T02:32:30;98794.92;;;12.64;100.00
40171;BME280;37650;52.790;18.268;2023-08-07T02:35:51;98796.07;;;12.62;100.00
40171;BME280;37650;52.790;18.268;2023-08-07T02:39:13;98802.01;;;12.63;100.00
40171;BME280;37650;52.790;18.268;2023-08-07T02:42:34;98805.52;;;12.63;100.00
40171;BME280;37650;52.790;18.268;2023-08-07T02:45:55;98805.61;;;12.62;100.00
40171;BME280;37650;52.790;18.268;2023-08-07T02:49:17;98803.66;;;12.62;100.00
40171;BME280;37650;52.790;18.268;2023-08-07T02:52:41;98805.56;;;12.62;100.00
40171;BME280;37650;52.790;18.268;2023-08-07T02:56:02;98809.39;;;12.63;100.00
40171;BME280;37650;52.790;18.268;2023-08-07T02:59:24;98820.17;;;12.62;100.00
40171;BME280;37650;52.790;18.268;2023-08-07T03:02:45;98822.75;;;12.61;100.00
40171;BME280;37650;52.790;18.268;2023-08-07T03:06:06;98824.74;;;12.60;100.00
40171;BME280;37650;52.790;18.268;2023-08-07T03:09:27;98829.60;;;12.61;100.00
40171;BME280;37650;52.790;18.268;2023-08-07T03:12:49;98833.55;;;12.62;100.00
40171;BME280;37650;52.790;18.268;2023-08-07T03:16:10;98834.40;;;12.63;100.00
40171;BME280;37650;52.790;18.268;2023-08-07T03:19:32;98838.23;;;12.63;100.00
40171;BME280;37650;52.790;18.268;2023-08-07T03:22:53;98847.98;;;12.65;100.00
40171;BME280;37650;52.790;18.268;2023-08-07T03:26:15;98855.04;;;12.67;100.00
40171;BME280;37650;52.790;18.268;2023-08-07T03:29:36;98862.06;;;12.70;100.00
40171;BME280;37650;52.790;18.268;2023-08-07T03:32:57;98859.17;;;12.71;100.00
40171;BME280;37650;52.790;18.268;2023-08-07T03:36:19;98854.73;;;12.72;100.00
40171;BME280;37650;52.790;18.268;2023-08-07T03:39:40;98852.43;;;12.69;100.00
40171;BME280;37650;52.790;18.268;2023-08-07T03:43:01;98848.82;;;12.68;100.00
40171;BME280;37650;52.790;18.268;2023-08-07T03:46:23;98854.92;;;12.69;100.00
40171;BME280;37650;52.790;18.268;2023-08-07T03:49:46;98857.54;;;12.69;100.00
40171;BME280;37650;52.790;18.268;2023-08-07T03:53:08;98857.06;;;12.71;100.00
40171;BME280;37650;52.790;18.268;2023-08-07T03:56:33;98855.43;;;12.69;100.00
40171;BME280;37650;52.790;18.268;2023-08-07T03:59:57;98859.05;;;12.70;100.00
40171;BME280;37650;52.790;18.268;2023-08-07T04:03:22;98859.23;;;12.72;100.00
40171;BME280;37650;52.790;18.268;2023-08-07T04:06:45;98864.77;;;12.74;100.00
40171;BME280;37650;52.790;18.268;2023-08-07T04:10:07;98866.92;;;12.76;100.00
40171;BME280;37650;52.790;18.268;2023-08-07T04:13:29;98867.62;;;12.76;100.00
40171;BME280;37650;52.790;18.268;2023-08-07T04:16:51;98866.31;;;12.77;100.00
40171;BME280;37650;52.790;18.268;2023-08-07T04:20:12;98868.02;;;12.75;100.00
40171;BME280;37650;52.790;18.268;2023-08-07T04:23:33;98877.36;;;12.75;100.00
40171;BME280;37650;52.790;18.268;2023-08-07T04:26:55;98879.49;;;12.72;100.00
40171;BME280;37650;52.790;18.268;2023-08-07T04:30:16;98881.02;;;12.68;100.00
40171;BME280;37650;52.790;18.268;2023-08-07T04:33:38;98882.30;;;12.67;100.00
40171;BME280;37650;52.790;18.268;2023-08-07T04:36:59;98898.33;;;12.67;100.00
40171;BME280;37650;52.790;18.268;2023-08-07T04:40:21;98895.95;;;12.65;100.00
40171;BME280;37650;52.790;18.268;2023-08-07T04:43:43;98899.95;;;12.64;100.00
40171;BME280;37650;52.790;18.268;2023-08-07T04:47:04;98905.89;;;12.61;100.00
40171;BME280;37650;52.790;18.268;2023-08-07T04:50:26;98911.15;;;12.62;100.00
40171;BME280;37650;52.790;18.268;2023-08-07T04:53:47;98914.79;;;12.60;100.00
40171;BME280;37650;52.790;18.268;2023-08-07T04:57:11;98916.17;;;12.58;100.00
40171;BME280;37650;52.790;18.268;2023-08-07T05:00:33;98920.61;;;12.55;100.00
40171;BME280;37650;52.790;18.268;2023-08-07T05:03:54;98928.96;;;12.56;100.00
40171;BME280;37650;52.790;18.268;2023-08-07T05:07:15;98930.03;;;12.58;100.00
40171;BME280;37650;52.790;18.268;2023-08-07T05:10:37;98932.09;;;12.59;100.00
40171;BME280;37650;52.790;18.268;2023-08-07T05:13:58;98931.27;;;12.58;100.00
40171;BME280;37650;52.790;18.268;2023-08-07T05:17:23;98935.50;;;12.58;100.00
40171;BME280;37650;52.790;18.268;2023-08-07T05:20:44;98940.38;;;12.59;100.00
40171;BME280;37650;52.790;18.268;2023-08-07T05:24:05;98942.88;;;12.58;100.00
40171;BME280;37650;52.790;18.268;2023-08-07T05:27:28;98942.21;;;12.58;100.00
40171;BME280;37650;52.790;18.268;2023-08-07T05:30:49;98951.08;;;12.59;100.00
40171;BME280;37650;52.790;18.268;2023-08-07T05:34:10;98954.95;;;12.60;100.00
40171;BME280;37650;52.790;18.268;2023-08-07T05:37:31;98960.73;;;12.62;100.00
40171;BME280;37650;52.790;18.268;2023-08-07T05:40:53;98962.56;;;12.64;100.00
40171;BME280;37650;52.790;18.268;2023-08-07T05:44:14;98964.64;;;12.64;100.00
40171;BME280;37650;52.790;18.268;2023-08-07T05:47:35;98970.90;;;12.68;100.00
40171;BME280;37650;52.790;18.268;2023-08-07T05:50:57;98972.58;;;12.72;100.00
40171;BME280;37650;52.790;18.268;2023-08-07T05:54:18;98975.67;;;12.76;100.00
40171;BME280;37650;52.790;18.268;2023-08-07T05:57:40;98981.80;;;12.78;100.00
40171;BME280;37650;52.790;18.268;2023-08-07T06:01:01;98981.75;;;12.84;100.00
40171;BME280;37650;52.790;18.268;2023-08-07T06:04:23;98979.20;;;12.93;100.00
40171;BME280;37650;52.790;18.268;2023-08-07T06:07:44;98976.29;;;13.02;100.00
40171;BME280;37650;52.790;18.268;2023-08-07T06:11:05;98977.30;;;13.19;100.00
40171;BME280;37650;52.790;18.268;2023-08-07T06:14:29;98981.39;;;13.40;100.00
40171;BME280;37650;52.790;18.268;2023-08-07T06:17:51;98977.56;;;13.49;100.00
40171;BME280;37650;52.790;18.268;2023-08-07T06:21:12;98980.77;;;13.56;100.00
40171;BME280;37650;52.790;18.268;2023-08-07T06:24:34;98983.64;;;13.68;100.00
40171;BME280;37650;52.790;18.268;2023-08-07T06:27:55;98985.23;;;13.78;100.00
40171;BME280;37650;52.790;18.268;2023-08-07T06:31:17;98985.61;;;13.84;100.00
40171;BME280;37650;52.790;18.268;2023-08-07T06:34:38;98990.22;;;13.84;100.00
40171;BME280;37650;52.790;18.268;2023-08-07T06:38:00;98987.54;;;13.97;100.00
40171;BME280;37650;52.790;18.268;2023-08-07T06:41:21;98986.03;;;14.15;100.00
40171;BME280;37650;52.790;18.268;2023-08-07T06:44:42;98986.27;;;14.35;100.00
40171;BME280;37650;52.790;18.268;2023-08-07T06:48:03;98989.17;;;14.65;100.00
40171;BME280;37650;52.790;18.268;2023-08-07T06:51:25;98980.66;;;14.93;100.00
40171;BME280;37650;52.790;18.268;2023-08-07T06:54:46;98988.18;;;15.12;100.00
40171;BME280;37650;52.790;18.268;2023-08-07T06:58:08;98988.45;;;15.29;100.00
40171;BME280;37650;52.790;18.268;2023-08-07T07:01:29;98989.41;;;15.50;100.00
40171;BME280;37650;52.790;18.268;2023-08-07T07:04:50;98993.84;;;15.64;100.00
40171;BME280;37650;52.790;18.268;2023-08-07T07:08:11;98987.46;;;15.73;100.00
40171;BME280;37650;52.790;18.268;2023-08-07T07:11:33;99003.78;;;15.74;100.00
40171;BME280;37650;52.790;18.268;2023-08-07T07:14:55;99009.70;;;15.67;100.00
40171;BME280;37650;52.790;18.268;2023-08-07T07:18:17;99008.54;;;15.61;100.00
40171;BME280;37650;52.790;18.268;2023-08-07T07:21:38;99008.68;;;15.59;100.00
40171;BME280;37650;52.790;18.268;2023-08-07T07:25:00;99012.67;;;15.54;100.00
40171;BME280;37650;52.790;18.268;2023-08-07T07:28:21;99020.39;;;15.59;100.00
40171;BME280;37650;52.790;18.268;2023-08-07T07:31:42;99022.66;;;15.75;100.00
40171;BME280;37650;52.790;18.268;2023-08-07T07:35:04;99027.59;;;15.86;100.00
40171;BME280;37650;52.790;18.268;2023-08-07T07:38:25;99029.40;;;15.88;100.00
40171;BME280;37650;52.790;18.268;2023-08-07T07:41:47;99038.27;;;15.87;100.00
40171;BME280;37650;52.790;18.268;2023-08-07T07:45:08;99039.88;;;15.87;100.00
40171;BME280;37650;52.790;18.268;2023-08-07T07:48:29;99037.34;;;15.99;100.00
40171;BME280;37650;52.790;18.268;2023-08-07T07:51:51;99038.85;;;16.32;100.00
40171;BME280;37650;52.790;18.268;2023-08-07T07:55:12;99036.43;;;16.66;100.00
40171;BME280;37650;52.790;18.268;2023-08-07T07:58:34;99049.48;;;16.79;100.00
40171;BME280;37650;52.790;18.268;2023-08-07T08:01:55;99053.20;;;16.94;100.00
40171;BME280;37650;52.790;18.268;2023-08-07T08:05:17;99053.97;;;17.00;100.00
40171;BME280;37650;52.790;18.268;2023-08-07T08:08:39;99055.89;;;17.33;100.00
40171;BME280;37650;52.790;18.268;2023-08-07T08:12:00;99048.16;;;17.81;100.00
40171;BME280;37650;52.790;18.268;2023-08-07T08:15:22;99049.52;;;17.96;100.00
40171;BME280;37650;52.790;18.268;2023-08-07T08:18:43;99046.77;;;17.89;100.00
40171;BME280;37650;52.790;18.268;2023-08-07T08:22:05;99044.30;;;17.91;100.00
40171;BME280;37650;52.790;18.268;2023-08-07T08:25:26;99064.34;;;17.89;100.00
40171;BME280;37650;52.790;18.268;2023-08-07T08:28:48;99061.10;;;17.82;99.28
40171;BME280;37650;52.790;18.268;2023-08-07T08:32:08;99064.60;;;17.82;99.57
40171;BME280;37650;52.790;18.268;2023-08-07T08:35:30;99070.98;;;17.80;99.51
40171;BME280;37650;52.790;18.268;2023-08-07T08:38:52;99077.98;;;17.89;99.52
40171;BME280;37650;52.790;18.268;2023-08-07T08:42:14;99077.64;;;17.99;100.00
40171;BME280;37650;52.790;18.268;2023-08-07T08:45:37;99077.11;;;17.89;100.00
40171;BME280;37650;52.790;18.268;2023-08-07T08:48:59;99093.83;;;17.66;100.00
40171;BME280;37650;52.790;18.268;2023-08-07T08:52:22;99099.71;;;17.45;100.00
40171;BME280;37650;52.790;18.268;2023-08-07T08:55:45;99105.86;;;17.38;100.00
40171;BME280;37650;52.790;18.268;2023-08-07T08:59:08;99108.77;;;17.10;100.00
40171;BME280;37650;52.790;18.268;2023-08-07T09:02:30;99114.77;;;16.87;100.00
40171;BME280;37650;52.790;18.268;2023-08-07T09:05:58;99122.45;;;16.58;100.00
40171;BME280;37650;52.790;18.268;2023-08-07T09:09:20;99132.11;;;16.30;100.00
40171;BME280;37650;52.790;18.268;2023-08-07T09:13:04;99137.98;;;15.92;100.00
40171;BME280;37650;52.790;18.268;2023-08-07T09:16:31;99142.52;;;15.34;100.00
40171;BME280;37650;52.790;18.268;2023-08-07T09:19:53;99136.00;;;14.98;100.00
40171;BME280;37650;52.790;18.268;2023-08-07T09:23:15;99141.05;;;14.83;100.00
40171;BME280;37650;52.790;18.268;2023-08-07T09:26:39;99145.77;;;14.68;100.00
40171;BME280;37650;52.790;18.268;2023-08-07T09:30:06;99164.30;;;14.52;100.00
40171;BME280;37650;52.790;18.268;2023-08-07T09:33:30;99147.55;;;14.45;100.00
40171;BME280;37650;52.790;18.268;2023-08-07T09:36:52;99135.00;;;14.45;100.00
40171;BME280;37650;52.790;18.268;2023-08-07T09:40:13;99137.96;;;14.53;100.00
40171;BME280;37650;52.790;18.268;2023-08-07T09:43:36;99138.59;;;14.73;100.00
40171;BME280;37650;52.790;18.268;2023-08-07T09:46:58;99132.67;;;15.10;100.00
40171;BME280;37650;52.790;18.268;2023-08-07T09:50:21;99129.93;;;15.57;100.00
40171;BME280;37650;52.790;18.268;2023-08-07T09:53:43;99126.64;;;16.19;100.00
40171;BME280;37650;52.790;18.268;2023-08-07T09:57:05;99112.59;;;16.59;100.00
40171;BME280;37650;52.790;18.268;2023-08-07T10:00:26;99103.05;;;17.06;100.00
40171;BME280;37650;52.790;18.268;2023-08-07T10:03:48;99097.28;;;17.53;100.00
40171;BME280;37650;52.790;18.268;2023-08-07T10:07:10;99091.16;;;18.09;100.00
40171;BME280;37650;52.790;18.268;2023-08-07T10:10:32;99087.27;;;18.56;100.00
40171;BME280;37650;52.790;18.268;2023-08-07T10:13:57;99086.26;;;19.10;100.00
40171;BME280;37650;52.790;18.268;2023-08-07T10:17:23;99080.73;;;19.31;100.00
40171;BME280;37650;52.790;18.268;2023-08-07T10:20:44;99079.02;;;19.05;100.00
40171;BME280;37650;52.790;18.268;2023-08-07T10:24:07;99081.11;;;18.77;100.00
40171;BME280;37650;52.790;18.268;2023-08-07T10:27:34;99086.41;;;18.38;100.00
40171;BME280;37650;52.790;18.268;2023-08-07T10:30:57;99095.19;;;17.99;100.00
40171;BME280;37650;52.790;18.268;2023-08-07T10:34:19;99104.05;;;17.65;100.00
40171;BME280;37650;52.790;18.268;2023-08-07T10:37:44;99107.60;;;17.38;100.00
40171;BME280;37650;52.790;18.268;2023-08-07T10:44:30;99132.02;;;16.94;100.00
40171;BME280;37650;52.790;18.268;2023-08-07T10:48:10;99144.83;;;16.76;100.00
40171;BME280;37650;52.790;18.268;2023-08-07T10:51:32;99155.20;;;16.60;100.00
40171;BME280;37650;52.790;18.268;2023-08-07T10:54:54;99164.66;;;16.43;100.00
40171;BME280;37650;52.790;18.268;2023-08-07T10:58:23;99174.50;;;16.31;100.00
40171;BME280;37650;52.790;18.268;2023-08-07T11:01:50;99190.23;;;16.22;100.00
40171;BME280;37650;52.790;18.268;2023-08-07T11:05:12;99192.05;;;16.11;100.00
40171;BME280;37650;52.790;18.268;2023-08-07T11:08:34;99202.02;;;15.94;100.00
40171;BME280;37650;52.790;18.268;2023-08-07T11:11:56;99212.04;;;15.77;100.00
40171;BME280;37650;52.790;18.268;2023-08-07T11:15:17;99214.48;;;15.61;100.00
40171;BME280;37650;52.790;18.268;2023-08-07T11:18:39;99215.80;;;15.50;100.00
40171;BME280;37650;52.790;18.268;2023-08-07T11:22:02;99211.11;;;15.47;100.00
40171;BME280;37650;52.790;18.268;2023-08-07T11:25:26;99210.52;;;15.47;100.00
40171;BME280;37650;52.790;18.268;2023-08-07T11:28:47;99210.02;;;15.52;100.00
40171;BME280;37650;52.790;18.268;2023-08-07T11:32:09;99207.39;;;15.59;100.00
40171;BME280;37650;52.790;18.268;2023-08-07T11:35:30;99209.31;;;15.69;100.00
40171;BME280;37650;52.790;18.268;2023-08-07T11:38:52;99210.77;;;15.82;100.00
40171;BME280;37650;52.790;18.268;2023-08-07T11:42:13;99216.72;;;15.98;100.00
40171;BME280;37650;52.790;18.268;2023-08-07T11:45:35;99213.89;;;16.23;100.00
40171;BME280;37650;52.790;18.268;2023-08-07T11:48:56;99212.09;;;16.62;100.00
40171;BME280;37650;52.790;18.268;2023-08-07T11:52:17;99215.53;;;17.21;100.00
40171;BME280;37650;52.790;18.268;2023-08-07T11:55:46;99219.12;;;17.96;100.00
40171;BME280;37650;52.790;18.268;2023-08-07T11:59:08;99218.52;;;18.68;100.00
40171;BME280;37650;52.790;18.268;2023-08-07T12:02:29;99222.65;;;19.09;100.00
40171;BME280;37650;52.790;18.268;2023-08-07T12:05:51;99213.59;;;19.48;99.47
40171;BME280;37650;52.790;18.268;2023-08-07T12:09:12;99215.60;;;19.86;99.90
40171;BME280;37650;52.790;18.268;2023-08-07T12:12:35;99221.61;;;19.84;95.55
40171;BME280;37650;52.790;18.268;2023-08-07T12:15:57;99218.54;;;19.69;95.77
40171;BME280;37650;52.790;18.268;2023-08-07T12:19:18;99222.02;;;19.49;91.30
40171;BME280;37650;52.790;18.268;2023-08-07T12:22:40;99215.98;;;19.12;88.29
40171;BME280;37650;52.790;18.268;2023-08-07T12:26:02;99223.91;;;18.81;87.84
40171;BME280;37650;52.790;18.268;2023-08-07T12:29:24;99222.27;;;18.66;88.41
40171;BME280;37650;52.790;18.268;2023-08-07T12:32:49;99218.08;;;18.61;84.30
40171;BME280;37650;52.790;18.268;2023-08-07T12:36:10;99218.31;;;18.62;85.43
40171;BME280;37650;52.790;18.268;2023-08-07T12:39:34;99221.99;;;18.67;85.18
40171;BME280;37650;52.790;18.268;2023-08-07T12:42:55;99222.63;;;18.72;83.88
40171;BME280;37650;52.790;18.268;2023-08-07T12:46:17;99225.25;;;18.80;83.23
40171;BME280;37650;52.790;18.268;2023-08-07T12:49:38;99220.70;;;18.85;83.47
40171;BME280;37650;52.790;18.268;2023-08-07T12:52:59;99213.20;;;18.98;84.13
40171;BME280;37650;52.790;18.268;2023-08-07T12:56:20;99207.41;;;19.07;83.77
40171;BME280;37650;52.790;18.268;2023-08-07T12:59:41;99205.66;;;19.08;82.29
40171;BME280;37650;52.790;18.268;2023-08-07T13:03:03;99205.58;;;19.11;79.44
40171;BME280;37650;52.790;18.268;2023-08-07T13:06:24;99211.23;;;19.29;80.90
40171;BME280;37650;52.790;18.268;2023-08-07T13:09:45;99209.16;;;19.65;77.49
40171;BME280;37650;52.790;18.268;2023-08-07T13:13:07;99207.48;;;20.07;74.97
40171;BME280;37650;52.790;18.268;2023-08-07T13:16:28;99199.92;;;20.49;74.67
40171;BME280;37650;52.790;18.268;2023-08-07T13:19:50;99201.45;;;20.83;74.53
40171;BME280;37650;52.790;18.268;2023-08-07T13:23:11;99199.21;;;21.16;76.49
40171;BME280;37650;52.790;18.268;2023-08-07T13:26:32;99204.45;;;21.62;74.38
40171;BME280;37650;52.790;18.268;2023-08-07T13:29:53;99212.97;;;21.97;71.95
40171;BME280;37650;52.790;18.268;2023-08-07T13:33:15;99231.56;;;21.90;67.42
40171;BME280;37650;52.790;18.268;2023-08-07T13:36:37;99235.91;;;21.82;64.98
40171;BME280;37650;52.790;18.268;2023-08-07T13:39:59;99237.80;;;22.00;67.30
40171;BME280;37650;52.790;18.268;2023-08-07T13:43:20;99242.54;;;22.25;66.58
40171;BME280;37650;52.790;18.268;2023-08-07T13:46:42;99254.44;;;22.28;65.17
40171;BME280;37650;52.790;18.268;2023-08-07T13:50:06;99267.79;;;22.11;62.18
40171;BME280;37650;52.790;18.268;2023-08-07T13:53:28;99276.85;;;21.83;61.28
40171;BME280;37650;52.790;18.268;2023-08-07T13:56:50;99278.23;;;21.78;60.83
40171;BME280;37650;52.790;18.268;2023-08-07T14:00:13;99286.80;;;21.85;60.35
40171;BME280;37650;52.790;18.268;2023-08-07T14:03:35;99287.36;;;21.80;60.17
40171;BME280;37650;52.790;18.268;2023-08-07T14:06:57;99292.74;;;21.71;61.10
40171;BME280;37650;52.790;18.268;2023-08-07T14:10:20;99284.52;;;21.79;60.47
40171;BME280;37650;52.790;18.268;2023-08-07T14:13:41;99286.98;;;21.68;59.35
40171;BME280;37650;52.790;18.268;2023-08-07T14:17:03;99281.61;;;21.66;60.70
40171;BME280;37650;52.790;18.268;2023-08-07T14:20:25;99287.05;;;21.17;58.96
40171;BME280;37650;52.790;18.268;2023-08-07T14:23:46;99289.70;;;20.55;60.80
40171;BME280;37650;52.790;18.268;2023-08-07T14:27:07;99293.23;;;20.23;63.18
40171;BME280;37650;52.790;18.268;2023-08-07T14:30:30;99298.64;;;19.96;64.22
40171;BME280;37650;52.790;18.268;2023-08-07T14:33:51;99296.66;;;19.71;65.07
40171;BME280;37650;52.790;18.268;2023-08-07T14:37:12;99313.06;;;19.47;66.20
40171;BME280;37650;52.790;18.268;2023-08-07T14:40:33;99316.86;;;19.17;66.32
40171;BME280;37650;52.790;18.268;2023-08-07T14:43:54;99314.68;;;18.92;67.36
40171;BME280;37650;52.790;18.268;2023-08-07T14:47:16;99317.90;;;18.75;68.12
40171;BME280;37650;52.790;18.268;2023-08-07T14:50:37;99325.23;;;18.69;68.75
40171;BME280;37650;52.790;18.268;2023-08-07T14:53:59;99318.17;;;18.70;69.20
40171;BME280;37650;52.790;18.268;2023-08-07T14:57:20;99326.64;;;18.67;70.00
40171;BME280;37650;52.790;18.268;2023-08-07T15:00:42;99331.00;;;18.71;70.95
40171;BME280;37650;52.790;18.268;2023-08-07T15:04:03;99331.60;;;18.73;71.11
40171;BME280;37650;52.790;18.268;2023-08-07T15:07:24;99335.21;;;18.72;71.16
40171;BME280;37650;52.790;18.268;2023-08-07T15:10:46;99344.02;;;18.69;71.33
40171;BME280;37650;52.790;18.268;2023-08-07T15:14:07;99344.02;;;18.59;71.96
40171;BME280;37650;52.790;18.268;2023-08-07T15:17:29;99341.13;;;18.51;72.44
40171;BME280;37650;52.790;18.268;2023-08-07T15:20:49;99340.05;;;18.47;73.39
40171;BME280;37650;52.790;18.268;2023-08-07T15:24:11;99343.27;;;18.43;73.15
40171;BME280;37650;52.790;18.268;2023-08-07T15:27:32;99348.16;;;18.35;73.53
40171;BME280;37650;52.790;18.268;2023-08-07T15:30:54;99348.08;;;18.32;73.61
40171;BME280;37650;52.790;18.268;2023-08-07T15:34:15;99347.38;;;18.28;73.87
40171;BME280;37650;52.790;18.268;2023-08-07T15:37:37;99348.41;;;18.24;74.46
40171;BME280;37650;52.790;18.268;2023-08-07T15:40:58;99347.25;;;18.21;74.93
40171;BME280;37650;52.790;18.268;2023-08-07T15:44:19;99343.80;;;18.20;75.59
40171;BME280;37650;52.790;18.268;2023-08-07T15:47:41;99341.33;;;18.24;76.24
40171;BME280;37650;52.790;18.268;2023-08-07T15:51:02;99342.59;;;18.28;77.00
40171;BME280;37650;52.790;18.268;2023-08-07T15:54:25;99340.66;;;18.32;77.37
40171;BME280;37650;52.790;18.268;2023-08-07T15:57:46;99339.17;;;18.34;77.61
40171;BME280;37650;52.790;18.268;2023-08-07T16:01:07;99335.13;;;18.40;78.35
40171;BME280;37650;52.790;18.268;2023-08-07T16:04:28;99335.63;;;18.47;78.40
40171;BME280;37650;52.790;18.268;2023-08-07T16:07:50;99334.03;;;18.51;78.78
40171;BME280;37650;52.790;18.268;2023-08-07T16:11:11;99331.31;;;18.51;78.86
40171;BME280;37650;52.790;18.268;2023-08-07T16:14:32;99325.36;;;18.53;79.40
40171;BME280;37650;52.790;18.268;2023-08-07T16:17:54;99331.15;;;18.56;79.64
40171;BME280;37650;52.790;18.268;2023-08-07T16:21:15;99329.77;;;18.53;79.76
40171;BME280;37650;52.790;18.268;2023-08-07T16:24:36;99327.80;;;18.43;79.93
40171;BME280;37650;52.790;18.268;2023-08-07T16:27:59;99323.59;;;18.34;80.56
40171;BME280;37650;52.790;18.268;2023-08-07T16:31:21;99319.81;;;18.30;80.87
40171;BME280;37650;52.790;18.268;2023-08-07T16:34:42;99317.48;;;18.27;81.12
40171;BME280;37650;52.790;18.268;2023-08-07T16:38:03;99312.81;;;18.23;81.52
40171;BME280;37650;52.790;18.268;2023-08-07T16:41:25;99311.41;;;18.21;81.94
40171;BME280;37650;52.790;18.268;2023-08-07T16:44:47;99319.50;;;18.20;82.15
40171;BME280;37650;52.790;18.268;2023-08-07T16:48:09;99322.73;;;18.19;82.45
40171;BME280;37650;52.790;18.268;2023-08-07T16:51:31;99326.49;;;18.19;82.76
40171;BME280;37650;52.790;18.268;2023-08-07T16:54:54;99322.13;;;18.18;83.02
40171;BME280;37650;52.790;18.268;2023-08-07T16:58:16;99326.33;;;18.15;83.42
40171;BME280;37650;52.790;18.268;2023-08-07T17:01:38;99324.02;;;18.08;84.28
40171;BME280;37650;52.790;18.268;2023-08-07T17:05:00;99317.58;;;17.99;84.40
40171;BME280;37650;52.790;18.268;2023-08-07T17:08:22;99324.21;;;17.89;85.32
40171;BME280;37650;52.790;18.268;2023-08-07T17:11:43;99324.15;;;17.82;86.16
40171;BME280;37650;52.790;18.268;2023-08-07T17:15:06;99330.00;;;17.69;86.85
40171;BME280;37650;52.790;18.268;2023-08-07T17:18:28;99329.42;;;17.56;87.70
40171;BME280;37650;52.790;18.268;2023-08-07T17:21:49;99330.58;;;17.45;88.64
40171;BME280;37650;52.790;18.268;2023-08-07T17:25:10;99338.30;;;17.31;89.39
40171;BME280;37650;52.790;18.268;2023-08-07T17:28:33;99347.05;;;17.19;90.09
40171;BME280;37650;52.790;18.268;2023-08-07T17:31:55;99350.77;;;17.10;90.69